createdAt,value
2023-05-12T00:02:45.806Z,0.70
2023-05-12T00:05:50.734Z,0.40
2023-05-12T00:08:55.252Z,1.55
2023-05-12T00:11:59.991Z,0.70
2023-05-12T00:15:05.602Z,0.65
2023-05-12T00:18:10.110Z,1.40
2023-05-12T00:21:14.701Z,0.00
2023-05-12T00:24:19.192Z,0.80
2023-05-12T00:27:23.786Z,0.80
2023-05-12T00:30:28.437Z,0.75
2023-05-12T00:33:32.973Z,0.00
2023-05-12T00:36:37.826Z,1.08
2023-05-12T00:39:42.445Z,0.80
2023-05-12T00:42:47.057Z,0.85
2023-05-12T00:45:51.891Z,0.00
2023-05-12T00:48:57.344Z,0.98
2023-05-12T00:52:02.821Z,0.13
2023-05-12T00:55:07.724Z,1.15
2023-05-12T00:58:12.574Z,0.80
2023-05-12T01:01:18.041Z,0.85
2023-05-12T01:04:24.592Z,0.17
2023-05-12T01:07:32.417Z,0.30
2023-05-12T01:10:44.460Z,1.37
2023-05-12T01:13:49.484Z,0.85
2023-05-12T01:16:58.862Z,0.00
2023-05-12T01:20:06.766Z,0.00
2023-05-12T01:23:16.021Z,0.10
2023-05-12T01:26:21.003Z,1.65
2023-05-12T01:29:26.074Z,1.00
2023-05-12T01:32:31.153Z,0.00
2023-05-12T01:35:36.290Z,0.25
2023-05-12T01:38:40.874Z,0.00
2023-05-12T01:41:46.112Z,0.27
2023-05-12T01:44:51.079Z,0.20
2023-05-12T01:47:56.252Z,0.35
2023-05-12T01:51:01.675Z,0.22
2023-05-12T01:54:06.532Z,0.20
2023-05-12T01:57:15.105Z,0.70
2023-05-12T02:00:21.491Z,0.00
2023-05-12T02:03:28.500Z,1.55
2023-05-12T02:06:34.871Z,0.00
2023-05-12T02:09:39.824Z,0.00
2023-05-12T02:12:44.715Z,0.85
2023-05-12T02:15:49.517Z,0.15
2023-05-12T02:18:54.319Z,0.40
2023-05-12T02:21:59.088Z,0.75
2023-05-12T02:25:03.860Z,1.15
2023-05-12T02:28:11.028Z,0.80
2023-05-12T02:31:16.930Z,1.83
2023-05-12T02:34:21.545Z,0.00
2023-05-12T02:37:26.093Z,0.25
2023-05-12T02:40:31.221Z,0.25
2023-05-12T02:43:35.861Z,0.38
2023-05-12T02:46:40.534Z,0.15
2023-05-12T02:49:45.273Z,0.08
2023-05-12T02:52:50.454Z,0.25
2023-05-12T02:55:55.273Z,0.20
2023-05-12T02:58:59.841Z,0.40
2023-05-12T03:02:05.390Z,1.85
2023-05-12T03:05:10.195Z,0.85
2023-05-12T03:14:26.317Z,0.30
2023-05-12T03:17:30.913Z,0.15
2023-05-12T03:20:35.985Z,1.45
2023-05-12T03:23:40.560Z,1.67
2023-05-12T03:26:45.230Z,1.55
2023-05-12T03:29:50.055Z,1.38
2023-05-12T03:32:54.800Z,1.40
2023-05-12T03:36:00.252Z,1.65
2023-05-12T03:39:05.353Z,1.55
2023-05-12T03:42:11.072Z,1.38
2023-05-12T03:45:15.557Z,1.55
2023-05-12T03:48:20.144Z,1.55
2023-05-12T03:51:25.291Z,1.55
2023-05-12T03:54:30.738Z,1.65
2023-05-12T03:57:36.667Z,1.45
2023-05-12T04:00:41.534Z,1.45
2023-05-12T04:03:46.444Z,1.45
2023-05-12T04:06:51.150Z,1.75
2023-05-12T04:09:56.571Z,1.45
2023-05-12T04:13:02.487Z,1.88
2023-05-12T04:16:08.461Z,1.38
2023-05-12T04:19:13.210Z,1.45
2023-05-12T04:22:17.931Z,1.40
2023-05-12T04:25:22.365Z,1.55
2023-05-12T04:28:26.933Z,1.52
2023-05-12T04:31:31.954Z,1.65
2023-05-12T04:34:37.381Z,1.48
2023-05-12T04:37:42.477Z,1.45
2023-05-12T04:40:47.209Z,1.55
2023-05-12T04:46:59.898Z,1.55
2023-05-12T04:50:05.667Z,1.45
2023-05-12T04:53:11.398Z,1.55
2023-05-12T04:56:16.423Z,1.55
2023-05-12T04:59:21.546Z,1.65
2023-05-12T05:02:28.525Z,1.45
2023-05-12T05:05:33.563Z,2.15
2023-05-12T05:08:38.361Z,1.45
2023-05-12T05:11:43.181Z,1.45
2023-05-12T05:14:47.756Z,1.75
2023-05-12T05:17:52.459Z,1.55
2023-05-12T05:20:58.792Z,1.45
2023-05-12T05:24:04.310Z,1.65
2023-05-12T05:27:08.860Z,1.55
2023-05-12T05:30:13.552Z,1.45
2023-05-12T05:33:19.156Z,1.45
2023-05-12T05:36:26.396Z,1.48
2023-05-12T05:39:31.550Z,1.45
2023-05-12T05:42:36.424Z,1.98
2023-05-12T05:45:41.043Z,2.13
2023-05-12T05:48:46.103Z,1.67
2023-05-12T05:51:51.449Z,1.55
2023-05-12T05:54:56.512Z,1.88
2023-05-12T05:58:04.016Z,1.85
2023-05-12T06:01:08.958Z,1.40
2023-05-12T06:04:13.832Z,1.75
2023-05-12T06:07:20.001Z,1.45
2023-05-12T06:10:25.960Z,1.55
2023-05-12T06:13:30.866Z,1.75
2023-05-12T06:16:35.644Z,1.75
2023-05-12T06:19:40.259Z,1.38
2023-05-12T06:22:45.034Z,1.45
2023-05-12T06:25:50.399Z,1.45
2023-05-12T06:28:54.972Z,1.38
2023-05-12T06:32:00.584Z,2.13
2023-05-12T06:35:06.257Z,1.55
2023-05-12T06:38:10.805Z,2.25
2023-05-12T06:41:15.285Z,1.35
2023-05-12T06:44:20.485Z,1.45
2023-05-12T06:47:29.635Z,1.55
2023-05-12T06:50:35.213Z,1.55
2023-05-12T06:53:42.888Z,1.45
2023-05-12T06:56:47.457Z,1.35
2023-05-12T06:59:52.342Z,1.55
2023-05-12T07:02:57.326Z,1.35
2023-05-12T07:06:01.862Z,1.55
2023-05-12T07:09:06.536Z,1.65
2023-05-12T07:12:11.144Z,1.85
2023-05-12T07:15:15.660Z,1.55
2023-05-12T07:18:20.284Z,1.50
2023-05-12T07:21:24.864Z,2.20
2023-05-12T07:24:29.387Z,1.75
2023-05-12T07:27:34.313Z,1.65
2023-05-12T07:30:39.363Z,1.45
2023-05-12T07:33:43.832Z,1.40
2023-05-12T07:36:48.241Z,1.45
2023-05-12T07:39:52.686Z,1.45
2023-05-12T07:42:57.179Z,1.55
2023-05-12T07:46:01.708Z,1.45
2023-05-12T07:49:07.325Z,1.55
2023-05-12T07:52:11.830Z,1.45
2023-05-12T07:55:17.466Z,1.45
2023-05-12T07:58:22.571Z,1.48
2023-05-12T08:01:27.111Z,1.35
2023-05-12T08:04:31.850Z,1.45
2023-05-12T08:07:37.568Z,1.45
2023-05-12T08:10:43.006Z,1.85
2023-05-12T08:13:47.624Z,1.40
2023-05-12T08:16:52.203Z,1.55
2023-05-12T08:19:56.896Z,1.55
2023-05-12T08:23:01.514Z,1.35
2023-05-12T08:26:06.193Z,1.45
2023-05-12T08:29:10.726Z,1.65
2023-05-12T08:32:16.065Z,1.85
2023-05-12T08:35:20.918Z,1.45
2023-05-12T08:38:26.004Z,2.72
2023-05-12T08:41:46.465Z,1.45
2023-05-12T08:44:51.792Z,1.30
2023-05-12T08:47:58.356Z,1.65
2023-05-12T08:51:06.590Z,1.45
2023-05-12T08:54:13.130Z,1.40
2023-05-12T08:57:17.862Z,1.55
2023-05-12T09:00:25.456Z,2.25
2023-05-12T09:03:31.347Z,1.45
2023-05-12T09:06:36.217Z,1.38
2023-05-12T09:09:44.049Z,1.55
2023-05-12T09:12:52.319Z,1.45
2023-05-12T09:15:59.774Z,1.55
2023-05-12T09:19:06.825Z,1.45
2023-05-12T09:22:15.120Z,1.55
2023-05-12T09:25:21.817Z,1.45
2023-05-12T09:28:44.042Z,1.55
2023-05-12T09:31:57.738Z,1.35
2023-05-12T09:35:05.215Z,1.30
2023-05-12T09:38:11.023Z,1.40
2023-05-12T09:41:23.256Z,1.55
2023-05-12T09:44:29.277Z,1.50
2023-05-12T09:47:36.217Z,1.45
2023-05-12T09:50:47.785Z,1.85
2023-05-12T09:53:53.740Z,1.35
2023-05-12T09:57:01.015Z,1.45
2023-05-12T10:00:16.949Z,1.65
2023-05-12T10:03:34.751Z,1.90
2023-05-12T10:06:45.495Z,1.65
2023-05-12T10:09:50.374Z,1.75
2023-05-12T10:12:56.119Z,1.75
2023-05-12T10:16:01.135Z,1.45
2023-05-12T10:19:06.797Z,1.35
2023-05-12T10:22:11.573Z,1.45
2023-05-12T10:25:18.116Z,1.35
2023-05-12T10:28:22.901Z,1.35
2023-05-12T10:31:28.210Z,1.55
2023-05-12T10:34:34.814Z,1.40
2023-05-12T10:37:40.027Z,1.63
2023-05-12T10:40:59.243Z,1.55
2023-05-12T10:44:03.912Z,1.55
2023-05-12T10:47:16.090Z,1.45
2023-05-12T10:50:30.525Z,1.35
2023-05-12T10:53:49.188Z,1.48
2023-05-12T10:57:00.351Z,1.80
2023-05-12T11:00:05.972Z,1.38
2023-05-12T11:03:16.092Z,1.45
2023-05-12T11:06:22.751Z,1.55
2023-05-12T11:09:27.536Z,1.65
2023-05-12T11:12:35.289Z,1.65
2023-05-12T11:15:44.413Z,1.38
2023-05-12T11:18:49.943Z,1.38
2023-05-12T11:21:57.944Z,1.35
2023-05-12T11:25:10.628Z,1.10
2023-05-12T11:28:15.303Z,1.45
2023-05-12T11:31:21.458Z,1.45
2023-05-12T11:34:27.203Z,1.60
2023-05-12T11:37:37.007Z,1.45
2023-05-12T11:40:42.064Z,1.40
2023-05-12T11:43:46.588Z,1.45
2023-05-12T11:46:58.891Z,1.88
2023-05-12T11:50:03.550Z,1.35
2023-05-12T11:53:17.189Z,1.88
2023-05-12T11:56:23.617Z,1.45
2023-05-12T11:59:32.581Z,1.38
2023-05-12T12:02:38.878Z,1.85
2023-05-12T12:05:45.829Z,1.65
2023-05-12T12:09:00.152Z,1.55
2023-05-12T12:12:06.364Z,1.45
2023-05-12T12:15:11.946Z,1.75
2023-05-12T12:18:16.918Z,1.65
2023-05-12T12:21:22.931Z,1.65
2023-05-12T12:24:27.419Z,1.48
2023-05-12T12:27:31.829Z,1.45
2023-05-12T12:30:36.364Z,1.45
2023-05-12T12:33:40.901Z,1.55
2023-05-12T12:36:46.926Z,1.73
2023-05-12T12:39:51.498Z,1.60
2023-05-12T12:42:55.958Z,1.35
2023-05-12T12:46:00.474Z,1.55
2023-05-12T12:49:05.205Z,1.55
2023-05-12T12:52:10.172Z,1.55
2023-05-12T12:55:14.790Z,1.65
2023-05-12T12:58:19.837Z,1.45
2023-05-12T13:01:24.376Z,1.45
2023-05-12T13:04:28.923Z,1.45
2023-05-12T13:07:33.610Z,1.85
2023-05-12T13:10:38.770Z,1.73
2023-05-12T13:13:43.299Z,1.75
2023-05-12T13:16:48.001Z,1.45
2023-05-12T13:19:52.696Z,1.45
2023-05-12T13:22:57.287Z,1.48
2023-05-12T13:26:01.776Z,1.48
2023-05-12T13:29:06.705Z,1.45
2023-05-12T13:32:11.304Z,1.65
2023-05-12T13:35:15.914Z,2.33
2023-05-12T13:38:20.646Z,1.45
2023-05-12T13:41:25.229Z,1.65
2023-05-12T13:44:29.975Z,1.45
2023-05-12T13:47:35.014Z,1.55
2023-05-12T13:50:39.698Z,1.15
2023-05-12T13:53:44.215Z,1.52
2023-05-12T13:56:52.178Z,1.65
2023-05-12T13:59:58.418Z,1.55
2023-05-12T14:03:02.973Z,1.45
2023-05-12T14:06:07.632Z,2.00
2023-05-12T14:09:12.109Z,2.05
2023-05-12T14:12:17.042Z,1.40
2023-05-12T14:15:29.606Z,1.55
2023-05-12T14:18:43.174Z,1.55
2023-05-12T14:21:48.094Z,1.55
2023-05-12T14:24:52.861Z,1.45
2023-05-12T14:27:57.331Z,1.45
2023-05-12T14:31:03.271Z,1.98
2023-05-12T14:34:09.184Z,1.55
2023-05-12T14:37:13.936Z,1.55
2023-05-12T14:40:18.462Z,1.55
2023-05-12T14:43:23.051Z,1.55
2023-05-12T14:46:27.621Z,1.65
2023-05-12T14:49:32.448Z,1.55
2023-05-12T14:52:38.551Z,2.65
2023-05-12T14:55:43.169Z,1.45
2023-05-12T14:58:48.895Z,1.45
2023-05-12T15:01:53.528Z,1.45
2023-05-12T15:04:58.142Z,1.75
2023-05-12T15:08:02.802Z,1.35
2023-05-12T15:11:07.563Z,1.55
2023-05-12T15:14:12.869Z,1.65
2023-05-12T15:17:17.734Z,1.77
2023-05-12T15:20:22.498Z,1.65
2023-05-12T15:23:27.171Z,1.40
2023-05-12T15:26:34.194Z,1.95
2023-05-12T15:29:40.633Z,1.75
2023-05-12T15:32:45.316Z,1.45
2023-05-12T15:35:49.849Z,1.75
2023-05-12T15:38:54.555Z,1.45
2023-05-12T15:41:59.977Z,1.45
2023-05-12T15:45:04.912Z,1.35
2023-05-12T15:48:09.864Z,1.13
2023-05-12T15:51:14.379Z,1.38
2023-05-12T15:54:19.202Z,1.65
2023-05-12T15:57:24.010Z,1.90
2023-05-12T16:00:28.582Z,1.45
2023-05-12T16:03:33.095Z,2.25
2023-05-12T16:06:37.679Z,1.08
2023-05-12T16:09:42.233Z,1.55
2023-05-12T16:12:46.854Z,1.45
2023-05-12T16:15:51.314Z,1.75
2023-05-12T16:18:55.863Z,1.45
2023-05-12T16:22:00.615Z,1.40
2023-05-12T16:25:05.606Z,1.80
2023-05-12T16:28:10.108Z,1.38
2023-05-12T16:31:17.869Z,1.45
2023-05-12T16:34:24.955Z,1.45
2023-05-12T16:37:29.389Z,1.45
2023-05-12T16:40:33.835Z,1.48
2023-05-12T16:43:38.561Z,1.17
2023-05-12T16:46:43.252Z,1.45
2023-05-12T16:49:52.627Z,1.75
2023-05-12T16:52:57.123Z,1.88
2023-05-12T16:56:01.899Z,1.55
2023-05-12T16:59:06.522Z,1.65
2023-05-12T17:02:11.086Z,1.85
2023-05-12T17:05:15.784Z,1.35
2023-05-12T17:08:20.695Z,1.65
2023-05-12T17:11:26.082Z,1.85
2023-05-12T17:14:31.016Z,1.45
2023-05-12T17:17:36.045Z,1.80
2023-05-12T17:20:40.739Z,1.55
2023-05-12T17:23:45.765Z,1.27
2023-05-12T17:26:50.395Z,1.35
2023-05-12T17:29:54.979Z,1.65
2023-05-12T17:32:59.578Z,1.55
2023-05-12T17:36:12.430Z,1.52
2023-05-12T17:39:17.611Z,1.45
2023-05-12T17:42:23.070Z,2.10
2023-05-12T17:45:28.299Z,1.45
2023-05-12T17:48:33.256Z,1.45
2023-05-12T17:51:39.075Z,1.55
2023-05-12T17:54:43.787Z,1.55
2023-05-12T17:57:49.605Z,1.45
2023-05-12T18:00:54.174Z,1.45
2023-05-12T18:03:58.927Z,1.45
2023-05-12T18:07:03.490Z,1.65
2023-05-12T18:10:11.804Z,1.80
2023-05-12T18:13:16.532Z,1.98
2023-05-12T18:16:28.544Z,1.55
2023-05-12T18:22:38.436Z,1.65
2023-05-12T18:25:43.359Z,1.55
2023-05-12T18:28:47.918Z,1.88
2023-05-12T18:31:52.578Z,1.35
2023-05-12T18:34:57.266Z,1.35
2023-05-12T18:38:01.871Z,1.95
2023-05-12T18:41:06.958Z,1.45
2023-05-12T18:44:11.601Z,1.45
2023-05-12T18:47:16.394Z,1.45
